Appam, North Dakota
Current Conditions -  °F | °C
As of 12:55 AM on Friday 31 Oct 2014 (Local Time) from KD50 Reporting Station
Clear Clear  
Wind Chill: 10°   Ceiling: Unl
Heat Index: 19°   Visibility: 10mi
Dew Point: 19°   Wind: 7mph
Humidity: 100%   Direction: 130°SE
Pressure: 30.5"   Gusts: NA
Location:  48.59°N, 103.406°W
Report Text: KD50 310555Z AUTO 13006KT 10SM CLR M07/M07 A3050 RMK AO2
Loading
Personal Weather Stations






























Interactive Weather Map
Tropical Storm Tracking
New forecast layout! Learn more

10-Day Weather Forecast

Advertisements
Track Severe Weather on mobile